Detall de PIREP

Printer-friendly versionPDF version

[2015/08/12 13:49:00]
Flight IATA:CT2114
Pilot Number:030
Company ICAO:CAT
Aircraft Type:B738/F
PAX:132
Departing Airport: LEVC
Destination Airport: LEXJ
Alternate Airport:LEMD
Online: VATSIM
Route:CENTA A33 PRADO/N0426F260 UN733 CJN DCT RBO UN867 BLV
Flight Level:F330
No Slew and time accel
No pause
Crash detect
Detect pilot in Cockpit between each 30 and 45 minutes
13:49 Zero fuel Weight: 137015 Lbs, Fuel Weight: 15200 Lbs
13:49 VATSIM:LEVC 121330Z 10009KT 060V150 9999 FEW030 32/23 Q1015 NOSIG
13:49 VATSIM:LEXJ 121330Z 34005KT 290V020 9999 FEW020 23/18 Q1014
13:59 Parking Brakes off
14:25 Take-off
14:25 Take off Weight: 149814 Lbs
14:25 Wind: 110º @ 008 Knots Heading: 295º
14:25 POS N39º 29´ 25´´ W000º 29´ 05´´
14:25 Flaps:3 at 166 Knots
14:25 Gear Up: 184 Knots
14:25 Flaps:1 at 186 Knots
14:26 Flaps:0 at 204 Knots
14:40 Wind:241º@052 Knots Heading: 293º Ground Speed: 452 Knots Altitude 31023 ft
14:41 TOC
14:41 Fuel Weight: 9408 Lb
14:55 Wind:227º@086 Knots Heading: 003º Ground Speed: 552 Knots Altitude 33077 ft
14:55 TOD
14:55 Fuel Weight: 7663 Lb
15:10 Wind:182º@011 Knots Heading: 156º Ground Speed: 247 Knots Altitude 6003 ft
15:10 Flaps:1 at 217 Knots
15:10 Flaps:2 at 216 Knots
15:11 Flaps:3 at 179 Knots
15:14 Flaps:4 at 185 Knots
15:14 Flaps:5 at 190 Knots
15:14 Gear Down: 190 Knots
15:15 Flaps:6 at 159 Knots
15:15 Flaps:7 at 158 Knots
15:15 Flaps:6 at 154 Knots
15:15 Flaps:7 at 153 Knots
15:15 Flaps:6 at 152 Knots
15:15 Flaps:7 at 148 Knots
15:16 Flaps:8 at 140 Knots
15:18 TouchDown:Rate -286 ft/min Speed: 127 Knots
15:18 VATSIM:LEXJ 121500Z 36003KT 300V040 9999 FEW016 BKN021 22/19 Q1014
15:18 Land
15:18 Wind:208º@003 Knots
15:18 Heading: 288º
15:18 Flight Duration: 00:53
15:18 Landing Weight: 142728 Lbs
15:18 POS N43º 25´ 40´´ W003º 49´ 25´´
15:21 Parking brakes on
15:21 Block to Block Duration: 01:22
15:21 Final Fuel: 5414 Lbls
15:21 Spent Fuel: 9786 Lbls
15:21 Flight Length: 352 NM
15:21 TOD Land Length: 127 NM

Exportar CSV

Powered by Drupal - Modified by Danger4k